createdAt,value
2022-09-02T00:02:22.329Z,99.90
2022-09-02T00:04:50.699Z,99.90
2022-09-02T00:07:18.956Z,99.90
2022-09-02T00:09:47.213Z,99.90
2022-09-02T00:12:15.811Z,99.90
2022-09-02T00:14:44.084Z,99.90
2022-09-02T00:17:12.345Z,99.90
2022-09-02T00:19:41.996Z,99.90
2022-09-02T00:22:10.515Z,99.90
2022-09-02T00:24:44.397Z,99.90
2022-09-02T00:27:12.748Z,99.90
2022-09-02T00:29:41.257Z,99.90
2022-09-02T00:32:09.622Z,99.90
2022-09-02T00:34:38.292Z,99.90
2022-09-02T00:37:08.391Z,99.90
2022-09-02T00:39:36.952Z,99.90
2022-09-02T00:42:06.798Z,99.90
2022-09-02T00:44:35.595Z,99.90
2022-09-02T00:47:03.977Z,99.90
2022-09-02T00:49:36.529Z,99.90
2022-09-02T00:52:09.471Z,99.90
2022-09-02T00:54:42.498Z,99.90
2022-09-02T00:57:19.388Z,99.90
2022-09-02T00:59:54.519Z,99.90
2022-09-02T01:02:24.300Z,99.90
2022-09-02T01:04:56.685Z,99.90
2022-09-02T01:07:29.577Z,99.90
2022-09-02T01:10:00.806Z,99.90
2022-09-02T01:12:31.570Z,99.90
2022-09-02T01:15:00.547Z,99.90
2022-09-02T01:17:29.235Z,99.90
2022-09-02T01:20:01.401Z,99.90
2022-09-02T01:22:33.205Z,99.90
2022-09-02T01:25:05.804Z,99.90
2022-09-02T01:27:34.274Z,99.90
2022-09-02T01:30:02.488Z,99.90
2022-09-02T01:32:31.686Z,99.90
2022-09-02T01:35:00.263Z,99.90
2022-09-02T01:37:32.388Z,99.90
2022-09-02T01:40:01.318Z,99.90
2022-09-02T01:42:30.230Z,99.90
2022-09-02T01:44:58.541Z,99.90
2022-09-02T01:47:28.553Z,99.90
2022-09-02T01:49:57.341Z,99.90
2022-09-02T01:52:28.045Z,99.90
2022-09-02T01:54:59.006Z,99.90
2022-09-02T01:57:27.242Z,99.90
2022-09-02T01:59:55.944Z,99.90
2022-09-02T02:02:24.967Z,99.90
2022-09-02T02:04:53.690Z,99.90
2022-09-02T02:07:22.548Z,99.90
2022-09-02T02:09:51.039Z,99.90
2022-09-02T02:12:21.688Z,99.90
2022-09-02T02:14:49.936Z,99.90
2022-09-02T02:17:18.189Z,99.90
2022-09-02T02:19:46.335Z,99.90
2022-09-02T02:22:14.867Z,99.90
2022-09-02T02:24:43.026Z,99.90
2022-09-02T02:27:11.662Z,99.90
2022-09-02T02:29:44.264Z,99.90
2022-09-02T02:32:13.414Z,99.90
2022-09-02T02:34:41.771Z,99.90
2022-09-02T02:37:12.263Z,99.90
2022-09-02T02:39:41.331Z,99.90
2022-09-02T02:42:09.986Z,99.90
2022-09-02T02:44:39.377Z,99.90
2022-09-02T02:47:10.076Z,99.90
2022-09-02T02:49:39.222Z,99.90
2022-09-02T02:52:08.284Z,99.90
2022-09-02T02:54:36.853Z,99.90
2022-09-02T02:57:05.843Z,99.90
2022-09-02T02:59:34.023Z,99.90
2022-09-02T03:02:02.294Z,99.90
2022-09-02T03:04:32.277Z,99.90
2022-09-02T03:07:01.869Z,99.90
2022-09-02T03:09:31.418Z,99.90
2022-09-02T03:11:59.606Z,99.90
2022-09-02T03:14:28.211Z,99.90
2022-09-02T03:16:56.493Z,99.90
2022-09-02T03:19:24.922Z,99.90
2022-09-02T03:21:56.759Z,99.90
2022-09-02T03:24:25.174Z,99.90
2022-09-02T03:26:55.906Z,99.90
2022-09-02T03:29:24.192Z,99.90
2022-09-02T03:31:53.417Z,99.90
2022-09-02T03:34:22.281Z,99.90
2022-09-02T03:36:54.034Z,99.90
2022-09-02T03:39:23.332Z,99.90
2022-09-02T03:41:53.270Z,99.90
2022-09-02T03:44:23.034Z,99.90
2022-09-02T03:46:51.622Z,99.90
2022-09-02T03:49:19.769Z,99.90
2022-09-02T03:51:47.931Z,99.90
2022-09-02T03:54:17.399Z,99.90
2022-09-02T03:56:45.879Z,99.90
2022-09-02T03:59:13.952Z,99.90
2022-09-02T04:01:42.298Z,99.90
2022-09-02T04:04:10.524Z,99.90
2022-09-02T04:06:39.127Z,99.90
2022-09-02T04:09:07.820Z,99.90
2022-09-02T04:11:42.567Z,99.90
2022-09-02T04:14:11.240Z,99.90
2022-09-02T04:16:39.401Z,99.90
2022-09-02T04:19:09.434Z,99.90
2022-09-02T04:21:40.971Z,99.90
2022-09-02T04:24:11.231Z,99.90
2022-09-02T04:26:44.999Z,99.90
2022-09-02T04:29:13.548Z,99.90
2022-09-02T04:31:41.898Z,99.90
2022-09-02T04:34:10.165Z,99.90
2022-09-02T04:36:38.334Z,99.90
2022-09-02T04:39:09.162Z,99.90
2022-09-02T04:41:38.626Z,99.90
2022-09-02T04:44:08.354Z,99.90
2022-09-02T04:46:37.075Z,99.90
2022-09-02T04:49:06.048Z,99.90
2022-09-02T04:51:34.630Z,99.90
2022-09-02T04:54:03.164Z,99.90
2022-09-02T04:56:32.763Z,99.90
2022-09-02T04:59:01.581Z,99.90
2022-09-02T05:01:33.894Z,99.90
2022-09-02T05:04:02.881Z,99.90
2022-09-02T05:06:31.386Z,99.90
2022-09-02T05:09:01.823Z,99.90
2022-09-02T05:11:40.361Z,99.90
2022-09-02T05:14:09.235Z,99.90
2022-09-02T05:16:40.736Z,99.90
2022-09-02T05:19:10.203Z,99.90
2022-09-02T05:21:41.090Z,99.90
2022-09-02T05:24:09.289Z,99.90
2022-09-02T05:26:37.586Z,99.90
2022-09-02T05:29:06.980Z,99.90
2022-09-02T05:31:35.707Z,99.90
2022-09-02T05:34:05.997Z,99.90
2022-09-02T05:36:34.186Z,99.90
2022-09-02T05:39:03.096Z,99.90
2022-09-02T05:41:31.362Z,99.90
2022-09-02T05:44:03.456Z,99.90
2022-09-02T05:46:32.256Z,99.90
2022-09-02T05:49:10.394Z,99.90
2022-09-02T05:51:45.854Z,99.90
2022-09-02T05:54:16.396Z,99.90
2022-09-02T05:56:45.876Z,99.90
2022-09-02T05:59:14.664Z,99.90
2022-09-02T06:01:43.544Z,99.90
2022-09-02T06:04:11.790Z,99.90
2022-09-02T06:06:39.932Z,99.90
2022-09-02T06:09:12.343Z,99.90
2022-09-02T06:11:45.398Z,99.90
2022-09-02T06:14:14.392Z,99.90
2022-09-02T06:16:43.711Z,99.90
2022-09-02T06:19:13.563Z,99.90
2022-09-02T06:21:46.405Z,99.90
2022-09-02T06:24:16.109Z,99.90
2022-09-02T06:26:44.604Z,99.90
2022-09-02T06:29:13.404Z,99.90
2022-09-02T06:31:42.609Z,99.90
2022-09-02T06:34:13.703Z,99.90
2022-09-02T06:36:43.177Z,99.90
2022-09-02T06:39:13.710Z,99.90
2022-09-02T06:41:46.705Z,99.90
2022-09-02T06:44:16.173Z,99.90
2022-09-02T06:46:47.733Z,99.90
2022-09-02T06:49:17.279Z,99.90
2022-09-02T06:51:48.133Z,99.90
2022-09-02T06:54:18.069Z,99.90
2022-09-02T06:56:50.241Z,99.90
2022-09-02T06:59:19.045Z,99.90
2022-09-02T07:01:48.227Z,99.90
2022-09-02T07:04:34.381Z,99.90
2022-09-02T07:07:04.706Z,99.90
2022-09-02T07:09:32.963Z,99.90
2022-09-02T07:12:05.718Z,99.90
2022-09-02T07:14:38.287Z,99.90
2022-09-02T07:17:07.601Z,99.90
2022-09-02T07:19:35.832Z,99.90
2022-09-02T07:22:04.829Z,99.90
2022-09-02T07:24:33.023Z,99.90
2022-09-02T07:27:02.522Z,99.90
2022-09-02T07:29:30.851Z,99.90
2022-09-02T07:31:59.616Z,99.90
2022-09-02T07:34:27.778Z,99.90
2022-09-02T07:36:59.053Z,99.90
2022-09-02T07:39:30.803Z,99.90
2022-09-02T07:41:59.599Z,99.90
2022-09-02T07:44:30.041Z,99.90
2022-09-02T07:46:58.216Z,99.90
2022-09-02T07:49:27.998Z,99.90
2022-09-02T07:51:56.396Z,99.90
2022-09-02T07:54:26.848Z,99.90
2022-09-02T07:56:56.248Z,99.90
2022-09-02T07:59:24.876Z,99.90
2022-09-02T08:01:54.638Z,99.90
2022-09-02T08:04:24.891Z,99.90
2022-09-02T08:06:55.350Z,99.90
2022-09-02T08:09:24.298Z,99.90
2022-09-02T08:11:53.126Z,99.90
2022-09-02T08:14:24.376Z,99.90
2022-09-02T08:16:55.912Z,99.90
2022-09-02T08:19:25.194Z,99.90
2022-09-02T08:21:53.378Z,99.90
2022-09-02T08:24:21.522Z,99.90
2022-09-02T08:26:50.203Z,99.90
2022-09-02T08:29:18.370Z,99.90
2022-09-02T08:31:48.655Z,99.90
2022-09-02T08:34:20.241Z,99.90
2022-09-02T08:36:56.796Z,99.90
2022-09-02T08:39:25.604Z,99.90
2022-09-02T08:42:03.707Z,99.90
2022-09-02T08:44:37.425Z,99.90
2022-09-02T08:47:10.717Z,99.90
2022-09-02T08:49:45.335Z,99.90
2022-09-02T08:52:21.288Z,99.90
2022-09-02T08:54:55.557Z,99.90
2022-09-02T08:57:27.054Z,99.90
2022-09-02T08:59:58.338Z,99.90
2022-09-02T09:02:32.866Z,99.90
2022-09-02T09:05:24.416Z,99.90
2022-09-02T09:08:14.549Z,99.90
2022-09-02T09:10:58.068Z,99.90
2022-09-02T09:13:48.089Z,99.90
2022-09-02T09:16:26.657Z,99.90
2022-09-02T09:19:08.218Z,99.90
2022-09-02T09:21:39.000Z,99.90
2022-09-02T09:24:15.273Z,99.90
2022-09-02T09:26:45.167Z,99.90
2022-09-02T09:29:13.279Z,99.90
2022-09-02T09:31:43.364Z,99.90
2022-09-02T09:34:14.280Z,99.90
2022-09-02T09:36:53.677Z,99.90
2022-09-02T09:39:25.189Z,99.90
2022-09-02T09:41:56.063Z,99.90
2022-09-02T09:44:44.923Z,99.90
2022-09-02T09:47:19.536Z,99.90
2022-09-02T09:49:51.089Z,99.90
2022-09-02T09:52:28.998Z,99.90
2022-09-02T09:55:19.183Z,99.90
2022-09-02T09:57:53.598Z,99.90
2022-09-02T10:00:27.351Z,99.90
2022-09-02T10:02:59.562Z,99.90
2022-09-02T10:05:35.100Z,99.90
2022-09-02T10:08:15.296Z,99.90
2022-09-02T10:10:57.846Z,99.90
2022-09-02T10:13:29.340Z,99.90
2022-09-02T10:16:11.542Z,99.90
2022-09-02T10:18:46.499Z,99.90
2022-09-02T10:21:31.454Z,99.90
2022-09-02T10:24:10.947Z,99.90
2022-09-02T10:26:44.872Z,99.90
2022-09-02T10:29:37.004Z,99.90
2022-09-02T10:32:35.047Z,99.90
2022-09-02T10:35:12.409Z,99.90
2022-09-02T10:37:50.033Z,99.90
2022-09-02T10:40:25.910Z,99.90
2022-09-02T10:43:02.942Z,99.90
2022-09-02T10:45:36.875Z,99.90
2022-09-02T10:48:22.945Z,99.90
2022-09-02T10:50:56.419Z,99.90
2022-09-02T10:53:35.983Z,99.90
2022-09-02T10:56:10.533Z,99.90
2022-09-02T10:58:45.553Z,99.90
2022-09-02T11:01:19.415Z,99.90
2022-09-02T11:03:57.872Z,99.90
2022-09-02T11:06:40.356Z,99.90
2022-09-02T11:09:29.514Z,99.90
2022-09-02T11:12:06.108Z,99.90
2022-09-02T11:14:38.441Z,99.90
2022-09-02T11:17:12.999Z,99.90
2022-09-02T11:19:47.891Z,99.90
2022-09-02T11:22:27.417Z,99.90
2022-09-02T11:25:03.427Z,99.90
2022-09-02T11:27:42.459Z,99.90
2022-09-02T11:30:14.786Z,99.90
2022-09-02T11:32:48.237Z,99.90
2022-09-02T11:35:21.725Z,99.90
2022-09-02T11:37:54.624Z,99.90
2022-09-02T11:40:34.709Z,99.90
2022-09-02T11:43:23.563Z,99.90
2022-09-02T11:46:13.601Z,99.90
2022-09-02T11:49:29.539Z,99.90
2022-09-02T11:52:25.049Z,99.90
2022-09-02T11:55:03.440Z,99.90
2022-09-02T11:57:33.939Z,99.90
2022-09-02T12:00:25.747Z,99.90
2022-09-02T12:03:28.500Z,99.90
2022-09-02T12:06:20.244Z,99.90
2022-09-02T12:09:04.778Z,99.90
2022-09-02T12:11:41.684Z,99.90
2022-09-02T12:14:13.637Z,99.90
2022-09-02T12:16:45.467Z,99.90
2022-09-02T12:19:28.998Z,99.90
2022-09-02T12:22:38.543Z,99.90
2022-09-02T12:25:40.412Z,99.90
2022-09-02T12:28:25.628Z,99.90
2022-09-02T12:31:14.900Z,98.60
2022-09-02T12:33:49.230Z,98.80
2022-09-02T12:36:46.528Z,99.00
2022-09-02T12:39:51.979Z,98.10
2022-09-02T12:42:27.776Z,98.20
2022-09-02T12:45:06.420Z,98.20
2022-09-02T12:47:48.560Z,98.70
2022-09-02T12:50:26.142Z,97.60
2022-09-02T12:53:12.506Z,97.70
2022-09-02T12:55:42.313Z,98.40
2022-09-02T12:58:12.472Z,98.40
2022-09-02T13:00:55.599Z,96.20
2022-09-02T13:03:40.136Z,96.00
2022-09-02T13:06:18.290Z,95.50
2022-09-02T13:12:19.969Z,95.90
2022-09-02T13:15:23.249Z,95.70
2022-09-02T13:18:30.375Z,96.30
2022-09-02T13:21:22.960Z,95.90
2022-09-02T13:24:23.603Z,95.60
2022-09-02T13:27:14.084Z,95.10
2022-09-02T13:30:14.891Z,95.10
2022-09-02T13:32:44.396Z,95.30
2022-09-02T13:35:20.301Z,94.90
2022-09-02T13:38:00.460Z,95.60
2022-09-02T13:40:33.434Z,94.70
2022-09-02T13:43:04.065Z,93.90
2022-09-02T13:45:35.494Z,94.50
2022-09-02T13:48:08.194Z,94.20
2022-09-02T13:50:38.430Z,95.10
2022-09-02T13:53:45.615Z,95.30
2022-09-02T13:55:59.264Z,94.30
2022-09-02T13:58:36.419Z,93.70
2022-09-02T14:01:28.932Z,93.10
2022-09-02T14:03:59.416Z,93.10
2022-09-02T14:06:31.369Z,93.40
2022-09-02T14:09:03.895Z,92.10
2022-09-02T14:11:39.968Z,92.80
2022-09-02T14:14:08.434Z,92.50
2022-09-02T14:16:37.973Z,92.30
2022-09-02T14:19:24.045Z,90.30
2022-09-02T14:21:57.334Z,91.30
2022-09-02T14:24:28.933Z,91.80
2022-09-02T14:26:58.821Z,90.00
2022-09-02T14:29:28.430Z,90.80
2022-09-02T14:32:14.430Z,91.00
2022-09-02T14:34:43.498Z,90.60
2022-09-02T14:37:23.856Z,86.50
2022-09-02T14:40:11.847Z,88.50
2022-09-02T14:42:57.236Z,88.90
2022-09-02T14:45:28.292Z,88.40
2022-09-02T14:47:57.873Z,89.40
2022-09-02T14:50:30.195Z,88.70
2022-09-02T14:53:04.814Z,88.10
2022-09-02T14:55:48.226Z,87.90
2022-09-02T14:58:17.384Z,88.10
2022-09-02T15:00:48.029Z,89.60
2022-09-02T15:03:17.289Z,89.50
2022-09-02T15:05:46.104Z,87.10
2022-09-02T15:08:14.208Z,86.60
2022-09-02T15:10:42.708Z,87.60
2022-09-02T15:13:13.382Z,87.10
2022-09-02T15:15:41.675Z,86.80
2022-09-02T15:18:09.654Z,84.70
2022-09-02T15:20:37.715Z,86.40
2022-09-02T15:23:06.036Z,86.20
2022-09-02T15:25:34.789Z,85.90
2022-09-02T15:28:03.231Z,86.60
2022-09-02T15:30:34.782Z,86.30
2022-09-02T15:33:04.054Z,85.90
2022-09-02T15:35:32.818Z,85.40
2022-09-02T15:38:01.963Z,86.00
2022-09-02T15:40:30.171Z,84.00
2022-09-02T15:43:00.116Z,85.20
2022-09-02T15:45:28.940Z,85.00
2022-09-02T15:47:59.691Z,85.60
2022-09-02T15:50:28.335Z,85.70
2022-09-02T15:52:56.874Z,84.90
2022-09-02T15:55:29.422Z,85.20
2022-09-02T15:57:57.706Z,84.50
2022-09-02T16:00:27.752Z,84.10
2022-09-02T16:02:57.473Z,84.40
2022-09-02T16:05:27.047Z,83.30
2022-09-02T16:07:55.926Z,84.70
2022-09-02T16:10:23.890Z,84.70
2022-09-02T16:12:51.843Z,84.80
2022-09-02T16:15:20.888Z,85.10
2022-09-02T16:17:50.064Z,85.20
2022-09-02T16:20:21.203Z,85.40
2022-09-02T16:22:50.794Z,84.50
2022-09-02T16:25:18.760Z,84.60
2022-09-02T16:27:56.500Z,84.70
2022-09-02T16:30:25.692Z,84.30
2022-09-02T16:32:54.656Z,84.70
2022-09-02T16:35:22.721Z,84.30
2022-09-02T16:37:53.700Z,85.60
2022-09-02T16:40:22.243Z,85.50
2022-09-02T16:42:50.450Z,86.00
2022-09-02T16:45:19.540Z,85.80
2022-09-02T16:47:47.584Z,86.00
2022-09-02T16:50:15.694Z,85.60
2022-09-02T16:52:43.846Z,85.60
2022-09-02T16:55:17.842Z,85.40
2022-09-02T16:57:45.829Z,86.10
2022-09-02T17:00:14.706Z,86.20
2022-09-02T17:02:42.750Z,86.30
2022-09-02T17:05:10.958Z,86.60
2022-09-02T17:07:38.893Z,86.70
2022-09-02T17:10:07.333Z,86.60
2022-09-02T17:12:40.824Z,86.50
2022-09-02T17:15:11.195Z,86.80
2022-09-02T17:17:40.036Z,86.70
2022-09-02T17:20:08.450Z,86.90
2022-09-02T17:22:36.462Z,86.20
2022-09-02T17:25:04.574Z,87.10
2022-09-02T17:27:33.134Z,87.20
2022-09-02T17:30:02.360Z,87.00
2022-09-02T17:32:30.296Z,87.00
2022-09-02T17:34:58.544Z,87.40
2022-09-02T17:37:27.543Z,87.90
2022-09-02T17:39:55.554Z,88.40
2022-09-02T17:42:22.558Z,88.40
2022-09-02T17:44:50.645Z,88.50
2022-09-02T17:47:20.973Z,88.60
2022-09-02T17:49:49.817Z,88.60
2022-09-02T17:52:18.791Z,88.80
2022-09-02T17:54:47.563Z,89.00
2022-09-02T17:57:23.615Z,89.10
2022-09-02T18:00:07.495Z,89.30
2022-09-02T18:02:43.650Z,89.30
2022-09-02T18:05:16.952Z,89.20
2022-09-02T18:07:50.936Z,89.60
2022-09-02T18:10:18.926Z,89.70
2022-09-02T18:12:47.135Z,89.70
2022-09-02T18:15:17.478Z,90.00
2022-09-02T18:17:49.077Z,90.10
2022-09-02T18:20:21.248Z,90.10
2022-09-02T18:23:09.034Z,90.20
2022-09-02T18:25:47.077Z,90.30
2022-09-02T18:28:24.273Z,90.40
2022-09-02T18:30:59.795Z,90.50
2022-09-02T18:33:45.174Z,90.60
2022-09-02T18:36:19.399Z,90.50
2022-09-02T18:38:50.127Z,90.70
2022-09-02T18:41:24.091Z,90.70
2022-09-02T18:43:58.738Z,90.90
2022-09-02T18:46:28.967Z,91.00
2022-09-02T18:49:00.581Z,91.10
2022-09-02T18:51:35.024Z,91.10
2022-09-02T18:54:07.839Z,91.30
2022-09-02T18:56:38.748Z,91.40
2022-09-02T18:59:10.805Z,91.40
2022-09-02T19:01:41.810Z,91.50
2022-09-02T19:04:12.046Z,91.60
2022-09-02T19:06:41.616Z,91.70
2022-09-02T19:09:11.810Z,91.80
2022-09-02T19:11:40.552Z,91.90
2022-09-02T19:14:23.203Z,92.00
2022-09-02T19:16:51.303Z,92.20
2022-09-02T19:19:20.767Z,92.20
2022-09-02T19:21:51.279Z,92.50
2022-09-02T19:24:24.595Z,92.50
2022-09-02T19:26:53.651Z,92.50
2022-09-02T19:29:25.316Z,92.60
2022-09-02T19:31:54.731Z,93.00
2022-09-02T19:34:25.442Z,92.70
2022-09-02T19:36:53.708Z,93.00
2022-09-02T19:39:21.664Z,93.10
2022-09-02T19:41:50.169Z,93.20
2022-09-02T19:44:18.223Z,93.20
2022-09-02T19:49:38.760Z,93.40
2022-09-02T19:52:06.668Z,93.70
2022-09-02T19:54:34.728Z,93.90
2022-09-02T19:57:02.833Z,93.90
2022-09-02T19:59:30.794Z,94.00
2022-09-02T20:01:58.879Z,94.00
2022-09-02T20:04:29.724Z,94.20
2022-09-02T20:07:00.388Z,94.40
2022-09-02T20:09:29.305Z,94.30
2022-09-02T20:11:57.596Z,94.70
2022-09-02T20:14:26.264Z,94.70
2022-09-02T20:16:55.198Z,94.60
2022-09-02T20:19:23.565Z,94.90
2022-09-02T20:21:54.779Z,95.10
2022-09-02T20:24:25.033Z,95.30
2022-09-02T20:26:59.058Z,95.50
2022-09-02T20:29:34.699Z,95.60
2022-09-02T20:32:07.347Z,96.00
2022-09-02T20:34:40.133Z,95.50
2022-09-02T20:37:12.406Z,95.80
2022-09-02T20:39:47.932Z,95.90
2022-09-02T20:42:27.095Z,96.10
2022-09-02T20:45:02.296Z,96.20
2022-09-02T20:47:37.014Z,96.10
2022-09-02T20:50:11.316Z,96.30
2022-09-02T20:52:45.138Z,96.50
2022-09-02T20:55:19.238Z,96.50
2022-09-02T20:58:16.074Z,96.60
2022-09-02T21:00:54.045Z,96.70
2022-09-02T21:03:23.983Z,96.70
2022-09-02T21:05:56.117Z,96.90
2022-09-02T21:08:32.312Z,96.80
2022-09-02T21:11:02.173Z,96.90
2022-09-02T21:13:36.411Z,97.10
2022-09-02T21:16:08.445Z,97.00
2022-09-02T21:18:39.160Z,97.20
2022-09-02T21:21:11.401Z,97.20
2022-09-02T21:23:41.809Z,97.40
2022-09-02T21:26:14.597Z,97.40
2022-09-02T21:28:44.908Z,97.50
2022-09-02T21:31:16.537Z,97.50
2022-09-02T21:33:45.234Z,97.50
2022-09-02T21:36:14.686Z,97.70
2022-09-02T21:38:44.961Z,97.80
2022-09-02T21:41:24.267Z,97.60
2022-09-02T21:43:56.880Z,97.70
2022-09-02T21:46:29.354Z,97.80
2022-09-02T21:49:02.971Z,97.80
2022-09-02T21:51:35.152Z,97.90
2022-09-02T21:54:20.276Z,97.90
2022-09-02T21:56:53.944Z,97.90
2022-09-02T21:59:49.443Z,97.90
2022-09-02T22:02:21.352Z,97.90
2022-09-02T22:04:56.273Z,98.10
2022-09-02T22:07:27.387Z,98.00
2022-09-02T22:10:03.918Z,98.00
2022-09-02T22:12:39.831Z,98.10
2022-09-02T22:15:12.346Z,98.10
2022-09-02T22:17:45.785Z,98.20
2022-09-02T22:20:15.945Z,98.10
2022-09-02T22:22:47.057Z,98.10
2022-09-02T22:25:17.953Z,98.20
2022-09-02T22:27:50.862Z,98.10
2022-09-02T22:30:19.946Z,98.20
2022-09-02T22:32:49.356Z,98.10
2022-09-02T22:35:25.013Z,98.10
2022-09-02T22:37:56.034Z,98.20
2022-09-02T22:40:25.132Z,98.20
2022-09-02T22:42:58.148Z,98.30
2022-09-02T22:45:48.774Z,98.30
2022-09-02T22:48:35.433Z,98.20
2022-09-02T22:51:24.600Z,98.30
2022-09-02T22:53:52.518Z,98.30
2022-09-02T22:56:27.382Z,98.30
2022-09-02T22:59:03.129Z,98.30
2022-09-02T23:01:35.555Z,98.30
2022-09-02T23:04:09.079Z,98.40
2022-09-02T23:06:37.079Z,98.40
2022-09-02T23:09:10.334Z,98.40
2022-09-02T23:11:43.981Z,98.40
2022-09-02T23:14:26.444Z,98.40
2022-09-02T23:17:05.195Z,98.50
2022-09-02T23:19:37.468Z,98.50
2022-09-02T23:22:09.309Z,98.50
2022-09-02T23:24:45.317Z,98.60
2022-09-02T23:27:22.973Z,98.70
2022-09-02T23:29:54.820Z,98.80
2022-09-02T23:32:29.316Z,98.80
2022-09-02T23:35:04.312Z,98.80
2022-09-02T23:37:39.087Z,98.90
2022-09-02T23:40:11.536Z,99.00
2022-09-02T23:42:39.809Z,98.90
2022-09-02T23:45:16.353Z,99.10
2022-09-02T23:47:51.847Z,99.10
2022-09-02T23:50:22.544Z,99.10
2022-09-02T23:52:56.245Z,99.20
2022-09-02T23:55:31.420Z,99.20
2022-09-02T23:58:18.529Z,99.30
